Atayal Mariner — 3FKB8 — position and weather

sailwx.info

Track history (hours):
 
Tides and Currents Weather Stations Pressure Air Temp Water Temp Dewpoint Dewpoint Depression Visibility Wind Speed Wind Dir Waves Ship Positions

Atayal Mariner

Last reported at 2018-Feb-25 08:00 UTC. Time now 2018-Feb-25 08:10 UTC.
Position N 33°31' E 131°51'.

Length 135 m; draft 8.4 m.

Type: Cargo ship. MMSI: 373189000.

Date/timePositionNaut miles runAvg speedWind from/ knotsBaromVisibWave heightAir tempDewpointWater temp
2018-Feb-25 08:00N 33°31' E 131°51'510.5
2018-Feb-25 07:30N 33°36' E 131°48'510.4
2018-Feb-25 07:00N 33°41' E 131°45'510.4
2018-Feb-25 06:30N 33°45' E 131°42'510.0
2018-Feb-25 06:00N 33°47' E 131°37'510.3
2018-Feb-25 05:30N 33°48' E 131°31'510.3
2018-Feb-25 05:00N 33°49' E 131°25'510.2
2018-Feb-25 04:30N 33°50' E 131°19'510.4
2018-Feb-25 04:00N 33°51' E 131°13'510.3
2018-Feb-25 03:30N 33°54' E 131°07'510.3
2018-Feb-25 03:00N 33°57' E 131°02'4 8.9
2018-Feb-25 02:30N 33°57' E 130°57'4 7.5
2018-Feb-25 02:00N 33°55' E 130°53'5 9.2
2018-Feb-25 01:30N 33°60' E 130°52'510.4
2018-Feb-25 01:00N 34°04' E 130°48'5 9.5
2018-Feb-25 00:30N 34°08' E 130°45'5 9.7
2018-Feb-25 00:00N 34°12' E 130°45'5 9.9
2018-Feb-24 23:30N 34°17' E 130°45'510.2
2018-Feb-24 23:00N 34°22' E 130°46'610.4
2018-Feb-24 22:28N 34°28' E 130°47'510.7
2018-Feb-24 22:00N 34°33' E 130°48'610.5
2018-Feb-24 21:29N 34°38' E 130°49'  
2018-Feb-18 04:05N 34°43' E 130°51'811.0
2018-Feb-18 03:19N 34°35' E 130°49'311.3
2018-Feb-18 03:00N 34°32' E 130°48'611.2
2018-Feb-18 02:30N 34°26' E 130°46'511.0
2018-Feb-18 02:00N 34°21' E 130°46'510.6
2018-Feb-18 01:30N 34°15' E 130°45'511.0
2018-Feb-18 01:00N 34°10' E 130°45'510.5
2018-Feb-18 00:30N 34°05' E 130°47'612.0
2018-Feb-18 00:00N 34°01' E 130°52'510.7
2018-Feb-17 23:30N 33°55' E 130°53'5 9.4
2018-Feb-17 23:00N 33°58' E 130°58'3 7.0
2018-Feb-17 22:30N 33°58' E 131°02'612.1
2018-Feb-17 22:00N 33°54' E 131°08'612.3
2018-Feb-17 21:30N 33°51' E 131°15'612.3
2018-Feb-17 21:00N 33°50' E 131°22'612.3
2018-Feb-17 20:30N 33°49' E 131°29'612.0
2018-Feb-17 20:00N 33°48' E 131°36'611.8
2018-Feb-17 19:30N 33°46' E 131°43'611.6
2018-Feb-17 19:00N 33°45' E 131°50'611.8
2018-Feb-17 18:30N 33°44' E 131°57'1312.1
2018-Feb-17 17:23N 33°43' E 132°13'912.9
2018-Feb-17 16:39N 33°46' E 132°24'312.9
2018-Feb-17 16:25N 33°47' E 132°27'612.9
2018-Feb-17 15:59N 33°50' E 132°33'612.4
2018-Feb-17 15:30N 33°55' E 132°38'611.3
2018-Feb-17 15:00N 33°58' E 132°43'611.1
2018-Feb-17 14:30N 34°03' E 132°47'71 9.8
2018-Feb-17 07:14N 34°26' E 134°09'3 8.9
2018-Feb-17 06:54N 34°25' E 134°12'3 8.6
2018-Feb-17 06:30N 34°24' E 134°16'5 9.7
2018-Feb-17 06:00N 34°25' E 134°22'611.4
2018-Feb-17 05:31N 34°30' E 134°26'612.1
2018-Feb-17 05:00N 34°36' E 134°24'612.1
2018-Feb-17 04:30N 34°42' E 134°22'3 5.9
2018-Feb-17 03:58N 34°45' E 134°22'0 0.0
2018-Feb-17 03:28N 34°45' E 134°22'0 0.0
2018-Feb-17 02:55N 34°45' E 134°22'0 0.0
2018-Feb-17 02:28N 34°45' E 134°22'0 0.0
2018-Feb-17 01:40N 34°45' E 134°22'0 0.0
2018-Feb-17 01:22N 34°45' E 134°22'0 0.0
2018-Feb-17 00:52N 34°45' E 134°22'0 0.0
2018-Feb-17 00:28N 34°45' E 134°22'0 0.0
2018-Feb-16 23:46N 34°45' E 134°22'0 0.0
2018-Feb-16 23:28N 34°45' E 134°22'0 0.0
2018-Feb-16 22:58N 34°45' E 134°22'0 0.0
2018-Feb-16 22:28N 34°45' E 134°22'0 0.0
2018-Feb-16 21:46N 34°45' E 134°22'0 0.0
2018-Feb-16 21:16N 34°45' E 134°22'0 0.0
2018-Feb-16 20:58N 34°45' E 134°22'0 0.0
2018-Feb-16 20:28N 34°45' E 134°22'0 0.0
2018-Feb-16 19:58N 34°45' E 134°22'0 0.0
2018-Feb-16 16:22N 34°45' E 134°22'0 0.0
2018-Feb-16 15:58N 34°45' E 134°22'0 0.0
2018-Feb-16 15:16N 34°45' E 134°22'0 0.0
2018-Feb-16 14:52N 34°45' E 134°22'0 0.0
2018-Feb-16 14:28N 34°45' E 134°22'0 0.0
2018-Feb-16 13:46N 34°45' E 134°22'0 0.0
2018-Feb-16 13:16N 34°45' E 134°22'0 0.0
2018-Feb-16 12:52N 34°45' E 134°22'0 0.0
2018-Feb-16 12:28N 34°45' E 134°22'0 0.0
2018-Feb-16 11:58N 34°45' E 134°22'0 0.0
2018-Feb-16 11:28N 34°45' E 134°22'0 0.0
2018-Feb-16 10:58N 34°45' E 134°22'0 0.0
2018-Feb-16 10:28N 34°45' E 134°22'0 0.0
2018-Feb-16 09:46N 34°45' E 134°22'0 0.0
2018-Feb-16 09:22N 34°45' E 134°22'0 0.0
2018-Feb-16 08:58N 34°45' E 134°22'0 0.0
2018-Feb-16 08:28N 34°45' E 134°22'0 0.0
2018-Feb-16 07:58N 34°45' E 134°22'0 0.0
2018-Feb-16 07:22N 34°45' E 134°22'0 0.0
2018-Feb-16 06:52N 34°45' E 134°22'0 0.0
2018-Feb-16 06:22N 34°45' E 134°22'0 0.0
2018-Feb-16 05:58N 34°45' E 134°22'0 0.0
2018-Feb-16 05:28N 34°45' E 134°22'0 0.0
2018-Feb-16 04:52N 34°45' E 134°22'0 0.0
2018-Feb-16 04:22N 34°45' E 134°22'0 0.0
2018-Feb-16 03:46N 34°45' E 134°22'0 0.2
2018-Feb-16 03:30N 34°45' E 134°22'1 2.0
2018-Feb-16 02:55N 34°44' E 134°22'2 4.8
2018-Feb-16 02:29N 34°42' E 134°23'4 8.3
2018-Feb-16 01:59N 34°43' E 134°28'0 0.2
2018-Feb-16 01:22N 34°43' E 134°28'0 0.0
2018-Feb-16 00:28N 34°43' E 134°28'0 0.0
2018-Feb-15 23:58N 34°43' E 134°28'0 0.0
2018-Feb-15 23:16N 34°43' E 134°28'0 0.0
2018-Feb-15 22:52N 34°43' E 134°28'0 0.0
2018-Feb-15 22:22N 34°43' E 134°28'0 0.0
2018-Feb-15 21:58N 34°43' E 134°28'0 0.0
2018-Feb-15 21:28N 34°43' E 134°28'0 0.1
2018-Feb-15 20:58N 34°43' E 134°28'0 0.0
2018-Feb-15 20:28N 34°43' E 134°28'0 0.0
2018-Feb-15 19:52N 34°43' E 134°28'0 0.1
2018-Feb-15 19:28N 34°43' E 134°28'0 0.0
2018-Feb-15 18:58N 34°43' E 134°28'0 0.0
2018-Feb-15 18:22N 34°43' E 134°28'0 0.0
2018-Feb-15 17:52N 34°43' E 134°28'0 0.0
2018-Feb-15 17:28N 34°43' E 134°28'0 0.0
2018-Feb-15 16:58N 34°43' E 134°28'0 0.0
2018-Feb-15 16:22N 34°43' E 134°28'0 0.1
2018-Feb-15 15:58N 34°43' E 134°28'0 0.1
2018-Feb-15 15:22N 34°43' E 134°28'0 0.1
2018-Feb-15 14:52N 34°43' E 134°28'0 0.1
2018-Feb-15 14:22N 34°43' E 134°28'0 0.1
2018-Feb-15 13:28N 34°43' E 134°28'0 0.0
2018-Feb-15 12:34N 34°43' E 134°28'0 0.2
2018-Feb-15 12:16N 34°43' E 134°28'0 0.0
2018-Feb-15 11:52N 34°43' E 134°28'0 0.0
2018-Feb-15 11:28N 34°43' E 134°28'0 0.1
2018-Feb-15 10:52N 34°43' E 134°28'0 0.0
2018-Feb-15 10:28N 34°43' E 134°28'0 0.1
2018-Feb-15 09:58N 34°43' E 134°28'0 0.0
2018-Feb-15 09:28N 34°43' E 134°28'  
Track history (hours):
 
Tides and Currents Weather Stations Pressure Air Temp Water Temp Dewpoint Dewpoint Depression Visibility Wind Speed Wind Dir Waves Ship Positions

Atayal Mariner

Last reported at 2018-Feb-25 08:00 UTC. Time now 2018-Feb-25 08:10 UTC.
Position N 33°31' E 131°51'.

Length 135 m; draft 8.4 m.

Type: Cargo ship. MMSI: 373189000.

Date/timePositionNaut miles runAvg speedWind from/ knotsBaromVisibWave heightAir tempDewpointWater temp
2018-Feb-25 08:00N 33°31' E 131°51'510.5
2018-Feb-25 07:30N 33°36' E 131°48'510.4
2018-Feb-25 07:00N 33°41' E 131°45'510.4
2018-Feb-25 06:30N 33°45' E 131°42'510.0
2018-Feb-25 06:00N 33°47' E 131°37'510.3
2018-Feb-25 05:30N 33°48' E 131°31'510.3
2018-Feb-25 05:00N 33°49' E 131°25'510.2
2018-Feb-25 04:30N 33°50' E 131°19'510.4
2018-Feb-25 04:00N 33°51' E 131°13'510.3
2018-Feb-25 03:30N 33°54' E 131°07'510.3
2018-Feb-25 03:00N 33°57' E 131°02'4 8.9
2018-Feb-25 02:30N 33°57' E 130°57'4 7.5
2018-Feb-25 02:00N 33°55' E 130°53'5 9.2
2018-Feb-25 01:30N 33°60' E 130°52'510.4
2018-Feb-25 01:00N 34°04' E 130°48'5 9.5
2018-Feb-25 00:30N 34°08' E 130°45'5 9.7
2018-Feb-25 00:00N 34°12' E 130°45'5 9.9
2018-Feb-24 23:30N 34°17' E 130°45'510.2
2018-Feb-24 23:00N 34°22' E 130°46'610.4
2018-Feb-24 22:28N 34°28' E 130°47'510.7
2018-Feb-24 22:00N 34°33' E 130°48'610.5
2018-Feb-24 21:29N 34°38' E 130°49'  
2018-Feb-18 04:05N 34°43' E 130°51'811.0
2018-Feb-18 03:19N 34°35' E 130°49'311.3
2018-Feb-18 03:00N 34°32' E 130°48'611.2
2018-Feb-18 02:30N 34°26' E 130°46'511.0
2018-Feb-18 02:00N 34°21' E 130°46'510.6
2018-Feb-18 01:30N 34°15' E 130°45'511.0
2018-Feb-18 01:00N 34°10' E 130°45'510.5
2018-Feb-18 00:30N 34°05' E 130°47'612.0
2018-Feb-18 00:00N 34°01' E 130°52'510.7
2018-Feb-17 23:30N 33°55' E 130°53'5 9.4
2018-Feb-17 23:00N 33°58' E 130°58'3 7.0
2018-Feb-17 22:30N 33°58' E 131°02'612.1
2018-Feb-17 22:00N 33°54' E 131°08'612.3
2018-Feb-17 21:30N 33°51' E 131°15'612.3
2018-Feb-17 21:00N 33°50' E 131°22'612.3
2018-Feb-17 20:30N 33°49' E 131°29'612.0
2018-Feb-17 20:00N 33°48' E 131°36'611.8
2018-Feb-17 19:30N 33°46' E 131°43'611.6
2018-Feb-17 19:00N 33°45' E 131°50'611.8
2018-Feb-17 18:30N 33°44' E 131°57'1312.1
2018-Feb-17 17:23N 33°43' E 132°13'912.9
2018-Feb-17 16:39N 33°46' E 132°24'312.9
2018-Feb-17 16:25N 33°47' E 132°27'612.9
2018-Feb-17 15:59N 33°50' E 132°33'612.4
2018-Feb-17 15:30N 33°55' E 132°38'611.3
2018-Feb-17 15:00N 33°58' E 132°43'611.1
2018-Feb-17 14:30N 34°03' E 132°47'71 9.8
2018-Feb-17 07:14N 34°26' E 134°09'3 8.9
2018-Feb-17 06:54N 34°25' E 134°12'3 8.6
2018-Feb-17 06:30N 34°24' E 134°16'5 9.7
2018-Feb-17 06:00N 34°25' E 134°22'611.4
2018-Feb-17 05:31N 34°30' E 134°26'612.1
2018-Feb-17 05:00N 34°36' E 134°24'612.1
2018-Feb-17 04:30N 34°42' E 134°22'3 5.9
2018-Feb-17 03:58N 34°45' E 134°22'0 0.0
2018-Feb-17 03:28N 34°45' E 134°22'0 0.0
2018-Feb-17 02:55N 34°45' E 134°22'0 0.0
2018-Feb-17 02:28N 34°45' E 134°22'0 0.0
2018-Feb-17 01:40N 34°45' E 134°22'0 0.0
2018-Feb-17 01:22N 34°45' E 134°22'0 0.0
2018-Feb-17 00:52N 34°45' E 134°22'0 0.0
2018-Feb-17 00:28N 34°45' E 134°22'0 0.0
2018-Feb-16 23:46N 34°45' E 134°22'0 0.0
2018-Feb-16 23:28N 34°45' E 134°22'0 0.0
2018-Feb-16 22:58N 34°45' E 134°22'0 0.0
2018-Feb-16 22:28N 34°45' E 134°22'0 0.0
2018-Feb-16 21:46N 34°45' E 134°22'0 0.0
2018-Feb-16 21:16N 34°45' E 134°22'0 0.0
2018-Feb-16 20:58N 34°45' E 134°22'0 0.0
2018-Feb-16 20:28N 34°45' E 134°22'0 0.0
2018-Feb-16 19:58N 34°45' E 134°22'0 0.0
2018-Feb-16 16:22N 34°45' E 134°22'0 0.0
2018-Feb-16 15:58N 34°45' E 134°22'0 0.0
2018-Feb-16 15:16N 34°45' E 134°22'0 0.0
2018-Feb-16 14:52N 34°45' E 134°22'0 0.0
2018-Feb-16 14:28N 34°45' E 134°22'0 0.0
2018-Feb-16 13:46N 34°45' E 134°22'0 0.0
2018-Feb-16 13:16N 34°45' E 134°22'0 0.0
2018-Feb-16 12:52N 34°45' E 134°22'0 0.0
2018-Feb-16 12:28N 34°45' E 134°22'0 0.0
2018-Feb-16 11:58N 34°45' E 134°22'0 0.0
2018-Feb-16 11:28N 34°45' E 134°22'0 0.0
2018-Feb-16 10:58N 34°45' E 134°22'0 0.0
2018-Feb-16 10:28N 34°45' E 134°22'0 0.0
2018-Feb-16 09:46N 34°45' E 134°22'0 0.0
2018-Feb-16 09:22N 34°45' E 134°22'0 0.0
2018-Feb-16 08:58N 34°45' E 134°22'0 0.0
2018-Feb-16 08:28N 34°45' E 134°22'0 0.0
2018-Feb-16 07:58N 34°45' E 134°22'0 0.0
2018-Feb-16 07:22N 34°45' E 134°22'0 0.0
2018-Feb-16 06:52N 34°45' E 134°22'0 0.0
2018-Feb-16 06:22N 34°45' E 134°22'0 0.0
2018-Feb-16 05:58N 34°45' E 134°22'0 0.0
2018-Feb-16 05:28N 34°45' E 134°22'0 0.0
2018-Feb-16 04:52N 34°45' E 134°22'0 0.0
2018-Feb-16 04:22N 34°45' E 134°22'0 0.0
2018-Feb-16 03:46N 34°45' E 134°22'0 0.2
2018-Feb-16 03:30N 34°45' E 134°22'1 2.0
2018-Feb-16 02:55N 34°44' E 134°22'2 4.8
2018-Feb-16 02:29N 34°42' E 134°23'4 8.3
2018-Feb-16 01:59N 34°43' E 134°28'0 0.2
2018-Feb-16 01:22N 34°43' E 134°28'0 0.0
2018-Feb-16 00:28N 34°43' E 134°28'0 0.0
2018-Feb-15 23:58N 34°43' E 134°28'0 0.0
2018-Feb-15 23:16N 34°43' E 134°28'0 0.0
2018-Feb-15 22:52N 34°43' E 134°28'0 0.0
2018-Feb-15 22:22N 34°43' E 134°28'0 0.0
2018-Feb-15 21:58N 34°43' E 134°28'0 0.0
2018-Feb-15 21:28N 34°43' E 134°28'0 0.1
2018-Feb-15 20:58N 34°43' E 134°28'0 0.0
2018-Feb-15 20:28N 34°43' E 134°28'0 0.0
2018-Feb-15 19:52N 34°43' E 134°28'0 0.1
2018-Feb-15 19:28N 34°43' E 134°28'0 0.0
2018-Feb-15 18:58N 34°43' E 134°28'0 0.0
2018-Feb-15 18:22N 34°43' E 134°28'0 0.0
2018-Feb-15 17:52N 34°43' E 134°28'0 0.0
2018-Feb-15 17:28N 34°43' E 134°28'0 0.0
2018-Feb-15 16:58N 34°43' E 134°28'0 0.0
2018-Feb-15 16:22N 34°43' E 134°28'0 0.1
2018-Feb-15 15:58N 34°43' E 134°28'0 0.1
2018-Feb-15 15:22N 34°43' E 134°28'0 0.1
2018-Feb-15 14:52N 34°43' E 134°28'0 0.1
2018-Feb-15 14:22N 34°43' E 134°28'0 0.1
2018-Feb-15 13:28N 34°43' E 134°28'0 0.0
2018-Feb-15 12:34N 34°43' E 134°28'0 0.2
2018-Feb-15 12:16N 34°43' E 134°28'0 0.0
2018-Feb-15 11:52N 34°43' E 134°28'0 0.0
2018-Feb-15 11:28N 34°43' E 134°28'0 0.1
2018-Feb-15 10:52N 34°43' E 134°28'0 0.0
2018-Feb-15 10:28N 34°43' E 134°28'0 0.1
2018-Feb-15 09:58N 34°43' E 134°28'0 0.0
2018-Feb-15 09:28N 34°43' E 134°28'  

Dump ship's entire track history